Etalle, Belgium
Current Conditions -  °F | °C
As of 8:50 AM on Wednesday 22 Oct 2014 (Local Time) from ELLX Reporting Station
Broken Clouds Broken Clouds  
Wind Chill: 35°   Ceiling: 2500
Heat Index: 43°   Visibility: 6mi
Dew Point: 36°   Wind: 16mph
Humidity: 76%   Direction: 290°WNW
Pressure: 30.06"   Gusts: 28mph
Location:  49.68°N, 5.6°E
Report Text: ELLX 220650Z 29014G24KT 260V320 9999 FEW022 BKN025 06/02 Q1018 TEMPO 29015G30KT
Loading
Personal Weather Stations






























Interactive Weather Map
Tropical Storm Tracking
New forecast layout! Learn more

10-Day Weather Forecast

Advertisements
Track Severe Weather on mobile